KLCQ

Details ICAO KLCQ (LCQ)
Name Lake City Muni
Region United States
Timezone America/New_York (UTC-5.0)
Plans Departing 2
Arriving 4
Stats Elevation 201 ft / 61 m (AMSL)
Location 30.181711° -82.576542°
Runways 2
Magnetic Variation 5.845° W
Sunrise 2017-12-16 12:21:13 UTC / 2017-12-16 07:21:13 Local
Sunset 2017-12-16 22:33:39 UTC / 2017-12-16 17:33:39 Local
Advertisement - Login to hide

Runways

ID Width Length Bearing (true) Bearing (mag) Surface Threshold Offset Overrun Length
05 75 ft / 23 m 4,001 ft / 1,220 m 51.93° 57.77° Asphalt 0 ft / 0 m 0 ft / 0 m
10 150 ft / 46 m 7,990 ft / 2,435 m 97.08° 102.92° Asphalt 0 ft / 0 m 0 ft / 0 m
23 75 ft / 23 m 4,001 ft / 1,220 m 231.93° 237.77° Asphalt 0 ft / 0 m 0 ft / 0 m
28 150 ft / 46 m 7,990 ft / 2,435 m 277.09° 282.93° Asphalt 0 ft / 0 m 0 ft / 0 m

Map

Weather


0- 5 10 15 20 25 30 35+ Temperature / ° C

Clouds and Precipitation
Forecast for 2017-12-17 00:00 UTC. Updated 2 hours ago

Ground ~20,000 ft ~40,000 ft Winds

METAR

KLCQ 170055Z AUTO 00000KT 10SM CLR 08/05 A3028 RMK AO2

TAF

Not found

Frequencies

Recorded 120.67 MHz AWOS 3
Unicom 122.70 MHz UNICOM
Tower 119.20 MHz TWR
Unicom 119.20 MHz CTAF
Ground 121.90 MHz GND
Warning: Do not use this data for real-world aviation or navigation. No guarantee of current accuracy is given.